Nearby METARS Reports

 

LFML - Marseille/Marign, France
Distance from station: O 47km
Mise à jour: 25/02/2018 14:30
clair
clair
 Wind from NNO
Vent: NNO 26 km/h
Température: 9°C
Wind Chill: 6°C
Point de rosée: -1°C
Humidité: 50%
Baromètre: 1007 hPa
Résumé: clair
Visibility: greater than 10 km
2018/02/25 13:30 LFML 251330Z AUTO 33014KT CAVOK 09/M01 Q1007 NOSIG
LFMC - Le Luc/Le Cannet, France
Distance from station: ESE 48km
Mise à jour: 25/02/2018 14:30
couvert
couvert
 Wind from ESE
Vent: ESE 4 km/h
Température: 9°C
Point de rosée: 8°C
Humidité: 94%
Baromètre: 1005 hPa
Clouds: couvert
Visibility: 9 km
Cloud details: peu nuageux 640 m
nuageux 914 m
couvert 1158 m
2018/02/25 13:30 LFMC 251330Z AUTO 12002KT 9000 FEW021 BKN030 OVC038 09/08 Q1005
LFTH - Hyeres/Le Palyve, France
Distance from station: SSE 53km
Mise à jour: 25/02/2018 14:30
nuageux
nuageux
 Wind from varies
Vent: varies 2 km/h
Température: 11°C
Point de rosée: 8°C
Humidité: 82%
Baromètre: 1006 hPa
Clouds: nuageux
Visibility: 10 km
Cloud details: peu nuageux 427 m
partiellement nuageux 579 m
nuageux 914 m
2018/02/25 13:30 LFTH 251330Z AUTO VRB01KT 9999 FEW014 SCT019 BKN030 11/08 Q1006 BECMG 12012KT